aviador You're here:

LEMG Decoded Metar

MALAGA in SPAIN
Report Time2017-11-24 20:00:00
UTC Time2017-11-24 20:29:11
Flight Rules vfr VFR
WindCalm
Visibility9999 m
Phenomena:N/A
Clouds:N/A
Expected CloudBase > 800 ft AGL from Temp-Dew spread
CeilingNone
Temp14°C (ISA -1)
Dew Point12°C (88% RH)
QNH1021 hPa
Density Alt-174 ft
Elevation23 ft
Report Wrong Elevation
Raw Report
LEMG 242000Z 00000KT CAVOK 14/12 Q1021 NOSIG=

Extra information for LEMG:More info

Metar Taf Metar & Taf Last 4 Metars F.Rules Stats Wind Profile Meteogram Temp Stats Airport Information Weather charts Add Link Nearby VenuesMetar ALERT Operation Metar Decoded Social comments